sensor_id;sensor_type;location;lat;lon;timestamp;P1;durP1;ratioP1;P2;durP2;ratioP2
23730;SDS011;12046;44.702;10.622;2023-07-28T00:00:59;2.53;;;2.22;;
23730;SDS011;12046;44.702;10.622;2023-07-28T00:03:25;2.53;;;2.10;;
23730;SDS011;12046;44.702;10.622;2023-07-28T00:05:50;2.10;;;1.98;;
23730;SDS011;12046;44.702;10.622;2023-07-28T00:08:22;2.08;;;1.90;;
23730;SDS011;12046;44.702;10.622;2023-07-28T00:10:48;2.10;;;1.90;;
23730;SDS011;12046;44.702;10.622;2023-07-28T00:15:59;2.05;;;1.80;;
23730;SDS011;12046;44.702;10.622;2023-07-28T00:18:26;3.72;;;2.00;;
23730;SDS011;12046;44.702;10.622;2023-07-28T00:20:57;1.90;;;1.80;;
23730;SDS011;12046;44.702;10.622;2023-07-28T00:23:23;1.95;;;1.85;;
23730;SDS011;12046;44.702;10.622;2023-07-28T00:25:49;2.53;;;1.83;;
23730;SDS011;12046;44.702;10.622;2023-07-28T00:28:18;1.83;;;1.48;;
23730;SDS011;12046;44.702;10.622;2023-07-28T00:30:44;1.90;;;1.80;;
23730;SDS011;12046;44.702;10.622;2023-07-28T00:33:19;1.65;;;1.55;;
23730;SDS011;12046;44.702;10.622;2023-07-28T00:35:45;1.90;;;1.50;;
23730;SDS011;12046;44.702;10.622;2023-07-28T00:38:14;1.70;;;1.60;;
23730;SDS011;12046;44.702;10.622;2023-07-28T00:40:39;1.67;;;1.58;;
23730;SDS011;12046;44.702;10.622;2023-07-28T00:43:05;2.03;;;1.52;;
23730;SDS011;12046;44.702;10.622;2023-07-28T00:45:33;2.22;;;1.50;;
23730;SDS011;12046;44.702;10.622;2023-07-28T00:48:00;2.35;;;1.10;;
23730;SDS011;12046;44.702;10.622;2023-07-28T00:50:33;1.65;;;1.55;;
23730;SDS011;12046;44.702;10.622;2023-07-28T00:53:01;1.92;;;1.60;;
23730;SDS011;12046;44.702;10.622;2023-07-28T00:55:33;1.67;;;1.50;;
23730;SDS011;12046;44.702;10.622;2023-07-28T00:58:06;1.55;;;1.45;;
23730;SDS011;12046;44.702;10.622;2023-07-28T01:00:31;1.98;;;1.30;;
23730;SDS011;12046;44.702;10.622;2023-07-28T01:03:00;1.25;;;1.15;;
23730;SDS011;12046;44.702;10.622;2023-07-28T01:05:39;1.02;;;1.02;;
23730;SDS011;12046;44.702;10.622;2023-07-28T01:08:23;1.38;;;1.13;;
23730;SDS011;12046;44.702;10.622;2023-07-28T01:10:55;1.25;;;1.15;;
23730;SDS011;12046;44.702;10.622;2023-07-28T01:13:27;1.67;;;1.23;;
23730;SDS011;12046;44.702;10.622;2023-07-28T01:15:54;1.33;;;1.10;;
23730;SDS011;12046;44.702;10.622;2023-07-28T01:18:23;1.50;;;1.00;;
23730;SDS011;12046;44.702;10.622;2023-07-28T01:20:49;2.70;;;1.38;;
23730;SDS011;12046;44.702;10.622;2023-07-28T01:23:22;1.40;;;1.17;;
23730;SDS011;12046;44.702;10.622;2023-07-28T01:25:50;1.02;;;1.00;;
23730;SDS011;12046;44.702;10.622;2023-07-28T01:28:31;0.90;;;0.90;;
23730;SDS011;12046;44.702;10.622;2023-07-28T01:31:00;1.42;;;1.33;;
23730;SDS011;12046;44.702;10.622;2023-07-28T01:33:27;1.05;;;1.02;;
23730;SDS011;12046;44.702;10.622;2023-07-28T01:35:53;1.40;;;1.13;;
23730;SDS011;12046;44.702;10.622;2023-07-28T01:38:19;1.10;;;1.00;;
23730;SDS011;12046;44.702;10.622;2023-07-28T01:40:44;1.48;;;1.25;;
23730;SDS011;12046;44.702;10.622;2023-07-28T01:43:10;2.05;;;1.10;;
23730;SDS011;12046;44.702;10.622;2023-07-28T01:45:36;1.23;;;1.13;;
23730;SDS011;12046;44.702;10.622;2023-07-28T01:48:02;1.65;;;1.20;;
23730;SDS011;12046;44.702;10.622;2023-07-28T01:50:28;1.52;;;1.42;;
23730;SDS011;12046;44.702;10.622;2023-07-28T01:52:54;1.55;;;1.35;;
23730;SDS011;12046;44.702;10.622;2023-07-28T01:55:20;1.83;;;1.08;;
23730;SDS011;12046;44.702;10.622;2023-07-28T01:57:55;1.45;;;1.35;;
23730;SDS011;12046;44.702;10.622;2023-07-28T02:00:26;1.30;;;1.20;;
23730;SDS011;12046;44.702;10.622;2023-07-28T02:02:52;1.30;;;1.15;;
23730;SDS011;12046;44.702;10.622;2023-07-28T02:05:19;2.03;;;0.95;;
23730;SDS011;12046;44.702;10.622;2023-07-28T02:07:45;1.20;;;1.10;;
23730;SDS011;12046;44.702;10.622;2023-07-28T02:10:11;1.20;;;1.02;;
23730;SDS011;12046;44.702;10.622;2023-07-28T02:12:38;1.52;;;1.13;;
23730;SDS011;12046;44.702;10.622;2023-07-28T02:15:07;1.20;;;1.10;;
23730;SDS011;12046;44.702;10.622;2023-07-28T02:17:33;1.10;;;1.00;;
23730;SDS011;12046;44.702;10.622;2023-07-28T02:19:59;1.65;;;1.25;;
23730;SDS011;12046;44.702;10.622;2023-07-28T02:22:27;1.50;;;1.10;;
23730;SDS011;12046;44.702;10.622;2023-07-28T02:24:53;1.60;;;1.00;;
23730;SDS011;12046;44.702;10.622;2023-07-28T02:27:19;1.45;;;1.23;;
23730;SDS011;12046;44.702;10.622;2023-07-28T02:29:44;1.00;;;1.00;;
23730;SDS011;12046;44.702;10.622;2023-07-28T02:32:10;1.08;;;1.00;;
23730;SDS011;12046;44.702;10.622;2023-07-28T02:34:36;1.50;;;1.30;;
23730;SDS011;12046;44.702;10.622;2023-07-28T02:37:02;1.30;;;1.20;;
23730;SDS011;12046;44.702;10.622;2023-07-28T02:39:28;1.08;;;1.00;;
23730;SDS011;12046;44.702;10.622;2023-07-28T02:41:54;1.25;;;1.15;;
23730;SDS011;12046;44.702;10.622;2023-07-28T02:44:20;1.20;;;1.20;;
23730;SDS011;12046;44.702;10.622;2023-07-28T02:46:45;3.13;;;1.50;;
23730;SDS011;12046;44.702;10.622;2023-07-28T02:49:11;1.33;;;1.13;;
23730;SDS011;12046;44.702;10.622;2023-07-28T02:51:37;1.10;;;1.00;;
23730;SDS011;12046;44.702;10.622;2023-07-28T02:54:03;2.65;;;1.33;;
23730;SDS011;12046;44.702;10.622;2023-07-28T02:56:28;1.58;;;1.20;;
23730;SDS011;12046;44.702;10.622;2023-07-28T02:58:54;1.15;;;1.05;;
23730;SDS011;12046;44.702;10.622;2023-07-28T03:01:20;1.83;;;1.00;;
23730;SDS011;12046;44.702;10.622;2023-07-28T03:03:46;1.85;;;1.27;;
23730;SDS011;12046;44.702;10.622;2023-07-28T03:06:12;1.50;;;1.13;;
23730;SDS011;12046;44.702;10.622;2023-07-28T03:08:38;1.55;;;1.40;;
23730;SDS011;12046;44.702;10.622;2023-07-28T03:11:04;1.83;;;1.25;;
23730;SDS011;12046;44.702;10.622;2023-07-28T03:13:32;1.70;;;1.60;;
23730;SDS011;12046;44.702;10.622;2023-07-28T03:15:58;2.70;;;1.40;;
23730;SDS011;12046;44.702;10.622;2023-07-28T03:18:24;1.75;;;1.40;;
23730;SDS011;12046;44.702;10.622;2023-07-28T03:20:50;1.58;;;1.45;;
23730;SDS011;12046;44.702;10.622;2023-07-28T03:23:15;1.45;;;1.27;;
23730;SDS011;12046;44.702;10.622;2023-07-28T03:25:41;1.58;;;1.15;;
23730;SDS011;12046;44.702;10.622;2023-07-28T03:28:07;1.70;;;1.38;;
23730;SDS011;12046;44.702;10.622;2023-07-28T03:30:33;1.38;;;1.17;;
23730;SDS011;12046;44.702;10.622;2023-07-28T03:32:58;1.52;;;1.27;;
23730;SDS011;12046;44.702;10.622;2023-07-28T03:35:24;2.13;;;1.25;;
23730;SDS011;12046;44.702;10.622;2023-07-28T03:37:50;2.53;;;1.40;;
23730;SDS011;12046;44.702;10.622;2023-07-28T03:40:15;1.08;;;1.02;;
23730;SDS011;12046;44.702;10.622;2023-07-28T03:42:41;1.80;;;1.27;;
23730;SDS011;12046;44.702;10.622;2023-07-28T03:45:07;1.95;;;1.25;;
23730;SDS011;12046;44.702;10.622;2023-07-28T03:47:33;1.45;;;1.20;;
23730;SDS011;12046;44.702;10.622;2023-07-28T03:49:59;1.13;;;1.02;;
23730;SDS011;12046;44.702;10.622;2023-07-28T03:52:25;1.55;;;1.25;;
23730;SDS011;12046;44.702;10.622;2023-07-28T03:54:50;1.58;;;1.05;;
23730;SDS011;12046;44.702;10.622;2023-07-28T03:57:16;1.40;;;1.20;;
23730;SDS011;12046;44.702;10.622;2023-07-28T03:59:42;1.30;;;1.20;;
23730;SDS011;12046;44.702;10.622;2023-07-28T04:02:07;1.38;;;1.27;;
23730;SDS011;12046;44.702;10.622;2023-07-28T04:04:34;1.27;;;1.10;;
23730;SDS011;12046;44.702;10.622;2023-07-28T04:07:00;1.67;;;1.15;;
23730;SDS011;12046;44.702;10.622;2023-07-28T04:09:26;1.83;;;1.30;;
23730;SDS011;12046;44.702;10.622;2023-07-28T04:11:52;2.85;;;1.23;;
23730;SDS011;12046;44.702;10.622;2023-07-28T04:14:18;1.88;;;1.27;;
23730;SDS011;12046;44.702;10.622;2023-07-28T04:16:44;1.85;;;1.45;;
23730;SDS011;12046;44.702;10.622;2023-07-28T04:19:10;2.28;;;1.30;;
23730;SDS011;12046;44.702;10.622;2023-07-28T04:21:35;1.50;;;1.40;;
23730;SDS011;12046;44.702;10.622;2023-07-28T04:24:05;2.03;;;1.42;;
23730;SDS011;12046;44.702;10.622;2023-07-28T04:26:32;1.88;;;1.58;;
23730;SDS011;12046;44.702;10.622;2023-07-28T04:28:58;2.20;;;1.60;;
23730;SDS011;12046;44.702;10.622;2023-07-28T04:31:24;2.17;;;1.38;;
23730;SDS011;12046;44.702;10.622;2023-07-28T04:33:51;1.90;;;1.60;;
23730;SDS011;12046;44.702;10.622;2023-07-28T04:36:17;1.85;;;1.40;;
23730;SDS011;12046;44.702;10.622;2023-07-28T04:38:43;2.80;;;1.60;;
23730;SDS011;12046;44.702;10.622;2023-07-28T04:41:08;1.90;;;1.45;;
23730;SDS011;12046;44.702;10.622;2023-07-28T04:43:34;2.30;;;1.50;;
23730;SDS011;12046;44.702;10.622;2023-07-28T04:46:00;2.08;;;1.67;;
23730;SDS011;12046;44.702;10.622;2023-07-28T04:48:26;2.45;;;1.77;;
23730;SDS011;12046;44.702;10.622;2023-07-28T04:50:53;1.50;;;1.40;;
23730;SDS011;12046;44.702;10.622;2023-07-28T04:53:19;2.60;;;1.73;;
23730;SDS011;12046;44.702;10.622;2023-07-28T04:55:45;3.58;;;1.77;;
23730;SDS011;12046;44.702;10.622;2023-07-28T04:58:10;2.03;;;1.70;;
23730;SDS011;12046;44.702;10.622;2023-07-28T05:00:36;2.85;;;1.65;;
23730;SDS011;12046;44.702;10.622;2023-07-28T05:03:02;1.73;;;1.63;;
23730;SDS011;12046;44.702;10.622;2023-07-28T05:05:30;2.63;;;1.90;;
23730;SDS011;12046;44.702;10.622;2023-07-28T05:07:56;2.05;;;1.48;;
23730;SDS011;12046;44.702;10.622;2023-07-28T05:10:22;2.00;;;1.58;;
23730;SDS011;12046;44.702;10.622;2023-07-28T05:12:47;1.92;;;1.60;;
23730;SDS011;12046;44.702;10.622;2023-07-28T05:15:14;2.75;;;1.60;;
23730;SDS011;12046;44.702;10.622;2023-07-28T05:17:40;3.45;;;1.90;;
23730;SDS011;12046;44.702;10.622;2023-07-28T05:20:06;3.85;;;2.25;;
23730;SDS011;12046;44.702;10.622;2023-07-28T05:22:32;4.60;;;1.70;;
23730;SDS011;12046;44.702;10.622;2023-07-28T05:24:58;2.10;;;1.90;;
23730;SDS011;12046;44.702;10.622;2023-07-28T05:27:24;2.92;;;1.75;;
23730;SDS011;12046;44.702;10.622;2023-07-28T05:29:50;2.28;;;1.80;;
23730;SDS011;12046;44.702;10.622;2023-07-28T05:32:16;2.63;;;1.70;;
23730;SDS011;12046;44.702;10.622;2023-07-28T05:34:42;2.70;;;1.65;;
23730;SDS011;12046;44.702;10.622;2023-07-28T05:37:08;3.13;;;2.10;;
23730;SDS011;12046;44.702;10.622;2023-07-28T05:39:34;3.50;;;2.13;;
23730;SDS011;12046;44.702;10.622;2023-07-28T05:42:01;2.80;;;2.00;;
23730;SDS011;12046;44.702;10.622;2023-07-28T05:44:26;4.30;;;2.53;;
23730;SDS011;12046;44.702;10.622;2023-07-28T05:46:53;4.78;;;2.40;;
23730;SDS011;12046;44.702;10.622;2023-07-28T05:49:19;3.47;;;2.10;;
23730;SDS011;12046;44.702;10.622;2023-07-28T05:51:45;2.13;;;1.83;;
23730;SDS011;12046;44.702;10.622;2023-07-28T05:54:14;5.53;;;2.15;;
23730;SDS011;12046;44.702;10.622;2023-07-28T05:56:40;3.08;;;2.00;;
23730;SDS011;12046;44.702;10.622;2023-07-28T05:59:07;3.03;;;1.65;;
23730;SDS011;12046;44.702;10.622;2023-07-28T06:01:32;2.55;;;1.63;;
23730;SDS011;12046;44.702;10.622;2023-07-28T06:03:58;3.60;;;2.13;;
23730;SDS011;12046;44.702;10.622;2023-07-28T06:06:25;3.20;;;1.83;;
23730;SDS011;12046;44.702;10.622;2023-07-28T06:08:54;2.72;;;1.60;;
23730;SDS011;12046;44.702;10.622;2023-07-28T06:11:20;3.53;;;1.80;;
23730;SDS011;12046;44.702;10.622;2023-07-28T06:13:46;2.30;;;1.60;;
23730;SDS011;12046;44.702;10.622;2023-07-28T06:16:14;2.10;;;1.73;;
23730;SDS011;12046;44.702;10.622;2023-07-28T06:18:40;2.35;;;1.55;;
23730;SDS011;12046;44.702;10.622;2023-07-28T06:21:06;1.65;;;1.55;;
23730;SDS011;12046;44.702;10.622;2023-07-28T06:23:32;2.33;;;1.70;;
23730;SDS011;12046;44.702;10.622;2023-07-28T06:25:58;2.17;;;1.50;;
23730;SDS011;12046;44.702;10.622;2023-07-28T06:28:24;1.88;;;1.48;;
23730;SDS011;12046;44.702;10.622;2023-07-28T06:30:53;5.60;;;1.95;;
23730;SDS011;12046;44.702;10.622;2023-07-28T06:33:27;2.38;;;1.80;;
23730;SDS011;12046;44.702;10.622;2023-07-28T06:35:53;2.85;;;1.60;;
23730;SDS011;12046;44.702;10.622;2023-07-28T06:38:20;3.13;;;1.70;;
23730;SDS011;12046;44.702;10.622;2023-07-28T06:40:45;4.28;;;2.30;;
23730;SDS011;12046;44.702;10.622;2023-07-28T06:43:11;4.03;;;2.00;;
23730;SDS011;12046;44.702;10.622;2023-07-28T06:45:37;3.05;;;1.50;;
23730;SDS011;12046;44.702;10.622;2023-07-28T06:48:03;2.95;;;1.70;;
23730;SDS011;12046;44.702;10.622;2023-07-28T06:50:29;2.58;;;1.90;;
23730;SDS011;12046;44.702;10.622;2023-07-28T06:52:57;2.08;;;1.50;;
23730;SDS011;12046;44.702;10.622;2023-07-28T06:55:23;3.35;;;1.80;;
23730;SDS011;12046;44.702;10.622;2023-07-28T06:57:48;2.65;;;2.20;;
23730;SDS011;12046;44.702;10.622;2023-07-28T07:00:15;2.30;;;1.55;;
23730;SDS011;12046;44.702;10.622;2023-07-28T07:02:41;2.70;;;1.63;;
23730;SDS011;12046;44.702;10.622;2023-07-28T07:05:07;3.33;;;1.58;;
23730;SDS011;12046;44.702;10.622;2023-07-28T07:07:33;2.72;;;1.90;;
23730;SDS011;12046;44.702;10.622;2023-07-28T07:09:59;2.45;;;1.92;;
23730;SDS011;12046;44.702;10.622;2023-07-28T07:12:25;3.33;;;1.88;;
23730;SDS011;12046;44.702;10.622;2023-07-28T07:14:53;3.95;;;1.90;;
23730;SDS011;12046;44.702;10.622;2023-07-28T07:17:19;4.25;;;1.85;;
23730;SDS011;12046;44.702;10.622;2023-07-28T07:19:45;3.65;;;2.05;;
23730;SDS011;12046;44.702;10.622;2023-07-28T07:22:14;1.88;;;1.60;;
23730;SDS011;12046;44.702;10.622;2023-07-28T07:24:39;2.85;;;1.83;;
23730;SDS011;12046;44.702;10.622;2023-07-28T07:27:05;2.13;;;1.38;;
23730;SDS011;12046;44.702;10.622;2023-07-28T07:29:31;1.60;;;1.48;;
23730;SDS011;12046;44.702;10.622;2023-07-28T07:31:57;2.58;;;1.50;;
23730;SDS011;12046;44.702;10.622;2023-07-28T07:34:23;3.25;;;1.73;;
23730;SDS011;12046;44.702;10.622;2023-07-28T07:36:49;3.00;;;1.63;;
23730;SDS011;12046;44.702;10.622;2023-07-28T07:39:15;2.33;;;1.80;;
23730;SDS011;12046;44.702;10.622;2023-07-28T07:41:41;2.55;;;1.70;;
23730;SDS011;12046;44.702;10.622;2023-07-28T07:44:07;1.85;;;1.60;;
23730;SDS011;12046;44.702;10.622;2023-07-28T07:46:33;3.05;;;1.90;;
23730;SDS011;12046;44.702;10.622;2023-07-28T07:48:58;4.03;;;1.85;;
23730;SDS011;12046;44.702;10.622;2023-07-28T07:51:33;1.90;;;1.67;;
23730;SDS011;12046;44.702;10.622;2023-07-28T07:54:02;1.52;;;1.42;;
23730;SDS011;12046;44.702;10.622;2023-07-28T07:56:27;1.75;;;1.40;;
23730;SDS011;12046;44.702;10.622;2023-07-28T07:58:53;1.63;;;1.13;;
23730;SDS011;12046;44.702;10.622;2023-07-28T08:01:22;1.50;;;1.30;;
23730;SDS011;12046;44.702;10.622;2023-07-28T08:03:48;1.42;;;1.33;;
23730;SDS011;12046;44.702;10.622;2023-07-28T08:06:13;3.63;;;1.73;;
23730;SDS011;12046;44.702;10.622;2023-07-28T08:08:39;3.08;;;1.90;;
23730;SDS011;12046;44.702;10.622;2023-07-28T08:11:09;1.70;;;1.50;;
23730;SDS011;12046;44.702;10.622;2023-07-28T08:13:36;3.65;;;1.67;;
23730;SDS011;12046;44.702;10.622;2023-07-28T08:16:04;2.10;;;1.67;;
23730;SDS011;12046;44.702;10.622;2023-07-28T08:18:30;3.20;;;1.88;;
23730;SDS011;12046;44.702;10.622;2023-07-28T08:20:56;4.18;;;2.20;;
23730;SDS011;12046;44.702;10.622;2023-07-28T08:23:22;2.50;;;1.88;;
23730;SDS011;12046;44.702;10.622;2023-07-28T08:25:47;3.63;;;2.10;;
23730;SDS011;12046;44.702;10.622;2023-07-28T08:28:13;2.88;;;1.98;;
23730;SDS011;12046;44.702;10.622;2023-07-28T08:30:39;4.82;;;2.00;;
23730;SDS011;12046;44.702;10.622;2023-07-28T08:33:11;3.40;;;1.60;;
23730;SDS011;12046;44.702;10.622;2023-07-28T08:35:37;2.10;;;1.48;;
23730;SDS011;12046;44.702;10.622;2023-07-28T08:38:03;4.22;;;2.10;;
23730;SDS011;12046;44.702;10.622;2023-07-28T08:40:28;3.08;;;2.00;;
23730;SDS011;12046;44.702;10.622;2023-07-28T08:42:54;3.75;;;2.05;;
23730;SDS011;12046;44.702;10.622;2023-07-28T08:45:20;3.88;;;2.00;;
23730;SDS011;12046;44.702;10.622;2023-07-28T08:47:48;3.80;;;2.13;;
23730;SDS011;12046;44.702;10.622;2023-07-28T08:50:15;2.53;;;1.95;;
23730;SDS011;12046;44.702;10.622;2023-07-28T08:52:43;4.47;;;2.33;;
23730;SDS011;12046;44.702;10.622;2023-07-28T08:55:09;3.30;;;2.00;;
23730;SDS011;12046;44.702;10.622;2023-07-28T08:57:35;3.67;;;1.88;;
23730;SDS011;12046;44.702;10.622;2023-07-28T09:00:10;1.92;;;1.73;;
23730;SDS011;12046;44.702;10.622;2023-07-28T09:02:39;3.88;;;1.92;;
23730;SDS011;12046;44.702;10.622;2023-07-28T09:05:06;4.18;;;1.90;;
23730;SDS011;12046;44.702;10.622;2023-07-28T09:07:36;2.88;;;1.70;;
23730;SDS011;12046;44.702;10.622;2023-07-28T09:10:02;4.45;;;2.00;;
23730;SDS011;12046;44.702;10.622;2023-07-28T09:12:34;4.15;;;2.17;;
23730;SDS011;12046;44.702;10.622;2023-07-28T09:15:09;4.43;;;1.92;;
23730;SDS011;12046;44.702;10.622;2023-07-28T09:17:40;1.92;;;1.70;;
23730;SDS011;12046;44.702;10.622;2023-07-28T09:20:13;4.47;;;2.10;;
23730;SDS011;12046;44.702;10.622;2023-07-28T09:22:40;3.80;;;2.17;;
23730;SDS011;12046;44.702;10.622;2023-07-28T09:25:14;4.55;;;1.63;;
23730;SDS011;12046;44.702;10.622;2023-07-28T09:27:40;3.13;;;2.00;;
23730;SDS011;12046;44.702;10.622;2023-07-28T09:30:06;3.05;;;2.05;;
23730;SDS011;12046;44.702;10.622;2023-07-28T09:32:32;2.55;;;2.00;;
23730;SDS011;12046;44.702;10.622;2023-07-28T09:35:13;2.50;;;1.70;;
23730;SDS011;12046;44.702;10.622;2023-07-28T09:37:43;4.30;;;2.40;;
23730;SDS011;12046;44.702;10.622;2023-07-28T09:40:11;4.85;;;2.13;;
23730;SDS011;12046;44.702;10.622;2023-07-28T09:42:40;3.05;;;1.88;;
23730;SDS011;12046;44.702;10.622;2023-07-28T09:45:07;2.58;;;1.88;;
23730;SDS011;12046;44.702;10.622;2023-07-28T09:47:35;3.90;;;1.70;;
23730;SDS011;12046;44.702;10.622;2023-07-28T09:50:03;2.00;;;1.50;;
23730;SDS011;12046;44.702;10.622;2023-07-28T09:52:34;2.90;;;1.75;;
23730;SDS011;12046;44.702;10.622;2023-07-28T09:55:09;4.35;;;1.95;;
23730;SDS011;12046;44.702;10.622;2023-07-28T09:57:51;4.07;;;1.63;;
23730;SDS011;12046;44.702;10.622;2023-07-28T10:00:22;1.90;;;1.67;;
23730;SDS011;12046;44.702;10.622;2023-07-28T10:02:49;3.63;;;1.77;;
23730;SDS011;12046;44.702;10.622;2023-07-28T10:05:16;2.20;;;1.58;;
23730;SDS011;12046;44.702;10.622;2023-07-28T10:07:45;2.28;;;1.63;;
23730;SDS011;12046;44.702;10.622;2023-07-28T10:10:13;3.70;;;1.70;;
23730;SDS011;12046;44.702;10.622;2023-07-28T10:12:45;3.35;;;1.90;;
23730;SDS011;12046;44.702;10.622;2023-07-28T10:15:14;3.40;;;1.73;;
23730;SDS011;12046;44.702;10.622;2023-07-28T10:17:43;2.28;;;1.80;;
23730;SDS011;12046;44.702;10.622;2023-07-28T10:25:42;2.63;;;2.00;;
23730;SDS011;12046;44.702;10.622;2023-07-28T10:30:56;1.92;;;1.67;;
23730;SDS011;12046;44.702;10.622;2023-07-28T10:33:29;3.67;;;1.95;;
23730;SDS011;12046;44.702;10.622;2023-07-28T10:35:57;2.58;;;1.92;;
23730;SDS011;12046;44.702;10.622;2023-07-28T10:41:16;3.33;;;1.70;;
23730;SDS011;12046;44.702;10.622;2023-07-28T10:43:44;3.30;;;1.88;;
23730;SDS011;12046;44.702;10.622;2023-07-28T10:46:15;2.10;;;1.80;;
23730;SDS011;12046;44.702;10.622;2023-07-28T10:48:43;2.00;;;1.70;;
23730;SDS011;12046;44.702;10.622;2023-07-28T10:51:11;2.92;;;2.08;;
23730;SDS011;12046;44.702;10.622;2023-07-28T10:53:37;2.00;;;1.80;;
23730;SDS011;12046;44.702;10.622;2023-07-28T10:56:03;2.75;;;1.90;;
23730;SDS011;12046;44.702;10.622;2023-07-28T10:58:32;2.35;;;1.83;;
23730;SDS011;12046;44.702;10.622;2023-07-28T11:01:00;3.67;;;2.25;;
23730;SDS011;12046;44.702;10.622;2023-07-28T11:03:27;2.40;;;1.90;;
23730;SDS011;12046;44.702;10.622;2023-07-28T11:05:54;2.65;;;2.05;;
23730;SDS011;12046;44.702;10.622;2023-07-28T11:08:21;2.38;;;2.05;;
23730;SDS011;12046;44.702;10.622;2023-07-28T11:10:47;2.42;;;1.95;;
23730;SDS011;12046;44.702;10.622;2023-07-28T11:13:13;1.83;;;1.73;;
23730;SDS011;12046;44.702;10.622;2023-07-28T11:15:39;2.50;;;1.83;;
23730;SDS011;12046;44.702;10.622;2023-07-28T11:18:05;2.22;;;1.70;;
23730;SDS011;12046;44.702;10.622;2023-07-28T11:20:31;4.25;;;2.03;;
23730;SDS011;12046;44.702;10.622;2023-07-28T11:22:58;1.75;;;1.65;;
23730;SDS011;12046;44.702;10.622;2023-07-28T11:25:28;2.65;;;2.00;;
23730;SDS011;12046;44.702;10.622;2023-07-28T11:27:54;2.72;;;1.73;;
23730;SDS011;12046;44.702;10.622;2023-07-28T11:30:21;1.65;;;1.50;;
23730;SDS011;12046;44.702;10.622;2023-07-28T11:32:47;4.32;;;2.10;;
23730;SDS011;12046;44.702;10.622;2023-07-28T11:35:21;2.45;;;2.00;;
23730;SDS011;12046;44.702;10.622;2023-07-28T11:37:50;2.22;;;1.85;;
23730;SDS011;12046;44.702;10.622;2023-07-28T11:40:19;2.55;;;1.80;;
23730;SDS011;12046;44.702;10.622;2023-07-28T11:42:51;2.63;;;1.80;;
23730;SDS011;12046;44.702;10.622;2023-07-28T11:45:19;3.13;;;2.05;;
23730;SDS011;12046;44.702;10.622;2023-07-28T11:50:29;2.50;;;1.58;;
23730;SDS011;12046;44.702;10.622;2023-07-28T11:53:03;2.22;;;2.03;;
23730;SDS011;12046;44.702;10.622;2023-07-28T11:55:29;3.47;;;2.08;;
23730;SDS011;12046;44.702;10.622;2023-07-28T11:57:55;2.00;;;1.70;;
23730;SDS011;12046;44.702;10.622;2023-07-28T12:00:28;2.17;;;1.85;;
23730;SDS011;12046;44.702;10.622;2023-07-28T12:05:31;3.45;;;2.00;;
23730;SDS011;12046;44.702;10.622;2023-07-28T12:07:58;2.45;;;1.70;;
23730;SDS011;12046;44.702;10.622;2023-07-28T12:10:24;2.75;;;1.90;;
23730;SDS011;12046;44.702;10.622;2023-07-28T12:12:50;3.28;;;2.13;;
23730;SDS011;12046;44.702;10.622;2023-07-28T12:15:26;2.13;;;1.92;;
23730;SDS011;12046;44.702;10.622;2023-07-28T12:20:48;2.63;;;2.15;;
23730;SDS011;12046;44.702;10.622;2023-07-28T12:23:16;2.17;;;1.98;;
23730;SDS011;12046;44.702;10.622;2023-07-28T12:25:48;2.92;;;2.20;;
23730;SDS011;12046;44.702;10.622;2023-07-28T12:28:23;3.65;;;2.47;;
23730;SDS011;12046;44.702;10.622;2023-07-28T12:30:54;3.88;;;2.28;;
23730;SDS011;12046;44.702;10.622;2023-07-28T12:33:21;3.70;;;2.30;;
23730;SDS011;12046;44.702;10.622;2023-07-28T12:35:47;2.50;;;2.28;;
23730;SDS011;12046;44.702;10.622;2023-07-28T12:38:13;2.65;;;2.00;;
23730;SDS011;12046;44.702;10.622;2023-07-28T12:40:39;4.22;;;2.20;;
23730;SDS011;12046;44.702;10.622;2023-07-28T12:43:05;2.25;;;2.00;;
23730;SDS011;12046;44.702;10.622;2023-07-28T12:45:32;2.58;;;2.28;;
23730;SDS011;12046;44.702;10.622;2023-07-28T12:47:58;2.70;;;1.77;;
23730;SDS011;12046;44.702;10.622;2023-07-28T12:50:25;3.55;;;2.97;;
23730;SDS011;12046;44.702;10.622;2023-07-28T12:52:53;3.80;;;2.25;;
23730;SDS011;12046;44.702;10.622;2023-07-28T12:55:20;5.72;;;2.10;;
23730;SDS011;12046;44.702;10.622;2023-07-28T12:57:46;4.50;;;2.20;;
23730;SDS011;12046;44.702;10.622;2023-07-28T13:00:13;3.17;;;2.15;;
23730;SDS011;12046;44.702;10.622;2023-07-28T13:02:44;2.22;;;2.03;;
23730;SDS011;12046;44.702;10.622;2023-07-28T13:05:11;4.05;;;2.30;;
23730;SDS011;12046;44.702;10.622;2023-07-28T13:07:39;2.65;;;2.28;;
23730;SDS011;12046;44.702;10.622;2023-07-28T13:10:08;2.83;;;2.10;;
23730;SDS011;12046;44.702;10.622;2023-07-28T13:12:36;2.92;;;2.35;;
23730;SDS011;12046;44.702;10.622;2023-07-28T13:15:02;2.28;;;1.92;;
23730;SDS011;12046;44.702;10.622;2023-07-28T13:17:28;4.25;;;2.20;;
23730;SDS011;12046;44.702;10.622;2023-07-28T13:19:56;2.95;;;2.30;;
23730;SDS011;12046;44.702;10.622;2023-07-28T13:22:22;4.30;;;2.30;;
23730;SDS011;12046;44.702;10.622;2023-07-28T13:24:49;2.30;;;1.98;;
23730;SDS011;12046;44.702;10.622;2023-07-28T13:27:15;3.88;;;2.42;;
23730;SDS011;12046;44.702;10.622;2023-07-28T13:29:41;2.55;;;2.28;;
23730;SDS011;12046;44.702;10.622;2023-07-28T13:32:15;5.53;;;2.25;;
23730;SDS011;12046;44.702;10.622;2023-07-28T13:34:51;3.00;;;2.53;;
23730;SDS011;12046;44.702;10.622;2023-07-28T13:37:20;2.30;;;2.10;;
23730;SDS011;12046;44.702;10.622;2023-07-28T13:39:46;3.55;;;2.10;;
23730;SDS011;12046;44.702;10.622;2023-07-28T13:42:11;5.75;;;2.15;;
23730;SDS011;12046;44.702;10.622;2023-07-28T13:44:40;2.60;;;2.17;;
23730;SDS011;12046;44.702;10.622;2023-07-28T13:47:07;3.95;;;2.45;;
23730;SDS011;12046;44.702;10.622;2023-07-28T13:49:33;2.90;;;2.10;;
23730;SDS011;12046;44.702;10.622;2023-07-28T13:52:06;2.30;;;2.10;;
23730;SDS011;12046;44.702;10.622;2023-07-28T13:54:32;2.35;;;2.13;;
23730;SDS011;12046;44.702;10.622;2023-07-28T13:56:58;3.95;;;2.53;;
23730;SDS011;12046;44.702;10.622;2023-07-28T13:59:24;2.17;;;1.90;;
23730;SDS011;12046;44.702;10.622;2023-07-28T14:01:49;2.50;;;2.20;;
23730;SDS011;12046;44.702;10.622;2023-07-28T14:04:15;2.38;;;2.17;;
23730;SDS011;12046;44.702;10.622;2023-07-28T14:06:41;2.80;;;2.40;;
23730;SDS011;12046;44.702;10.622;2023-07-28T14:09:07;3.78;;;2.38;;
23730;SDS011;12046;44.702;10.622;2023-07-28T14:11:33;4.28;;;2.13;;
23730;SDS011;12046;44.702;10.622;2023-07-28T14:13:59;3.75;;;2.22;;
23730;SDS011;12046;44.702;10.622;2023-07-28T14:16:26;4.10;;;2.33;;
23730;SDS011;12046;44.702;10.622;2023-07-28T14:18:51;3.50;;;2.55;;
23730;SDS011;12046;44.702;10.622;2023-07-28T14:21:20;2.28;;;2.00;;
23730;SDS011;12046;44.702;10.622;2023-07-28T14:23:46;3.13;;;2.20;;
23730;SDS011;12046;44.702;10.622;2023-07-28T14:26:12;2.65;;;2.13;;
23730;SDS011;12046;44.702;10.622;2023-07-28T14:28:45;3.17;;;2.10;;
23730;SDS011;12046;44.702;10.622;2023-07-28T14:31:11;2.75;;;2.17;;
23730;SDS011;12046;44.702;10.622;2023-07-28T14:33:37;3.55;;;2.30;;
23730;SDS011;12046;44.702;10.622;2023-07-28T14:36:11;4.03;;;2.28;;
23730;SDS011;12046;44.702;10.622;2023-07-28T14:38:49;2.25;;;1.90;;
23730;SDS011;12046;44.702;10.622;2023-07-28T14:41:15;3.33;;;2.13;;
23730;SDS011;12046;44.702;10.622;2023-07-28T14:43:41;3.25;;;2.05;;
23730;SDS011;12046;44.702;10.622;2023-07-28T14:46:07;2.60;;;2.00;;
23730;SDS011;12046;44.702;10.622;2023-07-28T14:48:33;2.80;;;2.03;;
23730;SDS011;12046;44.702;10.622;2023-07-28T14:51:00;2.65;;;2.20;;
23730;SDS011;12046;44.702;10.622;2023-07-28T14:53:30;2.40;;;2.20;;
23730;SDS011;12046;44.702;10.622;2023-07-28T14:56:06;3.00;;;2.30;;